Impacts METAR Board INFO
IDs:

KBWI - Baltimore-Washington, MD, US

Updated at: 1200 UTC 12 Dec 2017
Potential Impact None Slight Moderate High
Time12/00Z 12/01Z 12/02Z 12/03Z 12/04Z 12/05Z 12/06Z 12/07Z 12/08Z 12/09Z 12/10Z 12/11Z 12/12Z
VIS10 10 10 10 10 10 10 10 10 10 10 10 10
CIG-- -- 90 190 180 180 140 140 140 140 140 110 100
CoverFEWSCTBKNBKNBKNBKNOVCOVCOVCOVCOVCOVCBKN
FltCatVFRVFRVFRVFRVFRVFRVFRVFRVFRVFRVFRVFRVFR
WX--------------------------
WDir16013017015002000160180200170190190
WSpd4 3 3 7 6 4 4 7 4 3 5 5 3
WGst-- -- -- -- -- -- -- -- -- -- -- -- --
Raw hourly METARs
KBWI 112354Z 16004KT 10SM FEW100 FEW150 04/M02 A2996 RMK AO2 SLP147 T00441017 10083 20039 56009
KBWI 120054Z 13003KT 10SM FEW090 SCT180 03/M01 A2995 RMK AO2 SLP144 T00331011
KBWI 120154Z 17003KT 10SM BKN090 BKN180 03/00 A2994 RMK AO2 SLP139 T00330000
KBWI 120254Z 15007KT 10SM FEW085 BKN190 04/M01 A2991 RMK AO2 SLP129 T00441006 58018
KBWI 120354Z VRB06KT 10SM BKN180 BKN210 04/M01 A2988 RMK AO2 SLP119 T00441011
KBWI 120454Z 20004KT 10SM SCT140 BKN180 BKN210 05/M01 A2985 RMK AO2 SLP110 T00501011 400830011
KBWI 120554Z VRB04KT 10SM BKN140 OVC190 05/M01 A2981 RMK AO2 SLP096 T00501006 10050 20033 58033
KBWI 120654Z 16007KT 10SM SCT090 BKN140 OVC200 06/00 A2977 RMK AO2 SLP082 T00560000
KBWI 120754Z 18004KT 10SM FEW090 BKN140 OVC200 05/00 A2973 RMK AO2 SLP069 T00500000
KBWI 120854Z 20003KT 10SM SCT090 BKN140 OVC200 05/00 A2970 RMK AO2 SLP056 T00500000 56040
KBWI 120954Z 17005KT 10SM FEW090 OVC140 04/00 A2965 RMK AO2 SLP041 T00440000
KBWI 121054Z 19005KT 10SM BKN110 OVC140 04/00 A2963 RMK AO2 SLP034 T00440000
KBWI 121154Z 19003KT 10SM BKN100 BKN140 04/00 A2961 RMK AO2 SLP026 T00440000 10056 20044 56030